createdAt,value
2023-01-27T00:03:44.969Z,35.87
2023-01-27T00:07:47.042Z,38.83
2023-01-27T00:11:59.692Z,38.20
2023-01-27T00:16:02.639Z,36.90
2023-01-27T00:20:03.964Z,34.43
2023-01-27T00:24:16.784Z,37.77
2023-01-27T00:28:22.922Z,38.20
2023-01-27T00:32:38.132Z,37.93
2023-01-27T00:36:39.916Z,36.73
2023-01-27T00:40:40.050Z,38.00
2023-01-27T00:45:00.184Z,37.57
2023-01-27T00:49:03.038Z,33.33
2023-01-27T00:53:03.709Z,35.83
2023-01-27T00:57:04.432Z,39.40
2023-01-27T01:01:08.031Z,35.47
2023-01-27T01:05:11.834Z,35.73
2023-01-27T01:09:11.858Z,34.23
2023-01-27T01:13:12.376Z,30.87
2023-01-27T01:17:12.517Z,35.10
2023-01-27T01:21:16.298Z,30.33
2023-01-27T01:25:16.622Z,32.33
2023-01-27T01:29:16.921Z,30.13
2023-01-27T01:33:17.085Z,28.67
2023-01-27T01:37:19.883Z,28.80
2023-01-27T01:41:23.002Z,27.80
2023-01-27T01:45:50.558Z,27.37
2023-01-27T01:49:51.227Z,28.07
2023-01-27T01:54:00.876Z,32.23
2023-01-27T01:58:01.353Z,30.37
2023-01-27T02:02:07.779Z,26.03
2023-01-27T02:06:09.347Z,27.97
2023-01-27T02:10:14.021Z,28.07
2023-01-27T02:14:18.945Z,26.30
2023-01-27T02:18:22.278Z,24.77
2023-01-27T02:22:31.556Z,28.00
2023-01-27T02:26:39.948Z,25.70
2023-01-27T02:30:40.195Z,25.87
2023-01-27T02:34:41.420Z,25.37
2023-01-27T02:38:49.335Z,24.77
2023-01-27T02:42:52.795Z,26.57
2023-01-27T02:46:53.171Z,26.37
2023-01-27T02:50:56.172Z,26.87
2023-01-27T02:54:56.280Z,24.07
2023-01-27T02:58:59.179Z,23.90
2023-01-27T03:03:07.727Z,21.37
2023-01-27T03:07:07.940Z,20.97
2023-01-27T03:11:08.890Z,21.50
2023-01-27T03:15:26.019Z,21.57
2023-01-27T03:19:26.882Z,21.77
2023-01-27T03:23:27.843Z,22.03
2023-01-27T03:27:28.151Z,22.37
2023-01-27T03:31:54.770Z,22.53
2023-01-27T03:36:07.680Z,23.87
2023-01-27T03:40:24.713Z,25.37
2023-01-27T03:44:37.324Z,24.93
2023-01-27T03:48:40.583Z,18.47
2023-01-27T03:52:40.698Z,25.70
2023-01-27T03:56:40.713Z,19.17
2023-01-27T04:00:40.767Z,21.77
2023-01-27T04:04:55.876Z,22.80
2023-01-27T04:08:56.485Z,22.20
2023-01-27T04:12:56.566Z,20.87
2023-01-27T04:16:59.772Z,21.70
2023-01-27T04:21:02.404Z,20.40
2023-01-27T04:25:02.682Z,23.07
2023-01-27T04:29:03.424Z,36.10
2023-01-27T04:33:05.464Z,26.17
2023-01-27T04:37:09.872Z,23.30
2023-01-27T04:41:09.931Z,21.70
2023-01-27T04:45:12.637Z,23.50
2023-01-27T04:49:13.900Z,22.37
2023-01-27T04:53:16.653Z,21.17
2023-01-27T04:57:16.777Z,21.97
2023-01-27T05:01:16.810Z,23.17
2023-01-27T05:05:16.944Z,22.30
2023-01-27T05:09:20.079Z,21.90
2023-01-27T05:13:20.097Z,20.90
2023-01-27T05:17:20.298Z,20.80
2023-01-27T05:21:23.265Z,24.57
2023-01-27T05:25:25.837Z,23.47
2023-01-27T05:29:26.468Z,24.63
2023-01-27T05:33:26.538Z,25.10
2023-01-27T05:37:26.669Z,21.47
2023-01-27T05:41:31.538Z,21.73
2023-01-27T05:45:31.581Z,24.60
2023-01-27T05:49:31.957Z,23.43
2023-01-27T05:53:32.146Z,23.83
2023-01-27T05:57:34.806Z,20.10
2023-01-27T06:01:37.761Z,24.27
2023-01-27T06:05:38.351Z,23.67
2023-01-27T06:09:38.934Z,24.77
2023-01-27T06:13:41.910Z,22.03
2023-01-27T06:17:42.178Z,23.70
2023-01-27T06:21:42.217Z,23.00
2023-01-27T06:25:44.763Z,25.93
2023-01-27T06:29:47.638Z,23.53
2023-01-27T06:33:48.345Z,23.97
2023-01-27T06:37:50.086Z,21.73
2023-01-27T06:41:52.200Z,21.53
2023-01-27T06:45:57.684Z,20.20
2023-01-27T06:49:57.878Z,20.20
2023-01-27T06:53:57.896Z,17.37
2023-01-27T06:57:58.178Z,15.80
2023-01-27T07:02:01.991Z,18.87
2023-01-27T07:06:02.202Z,18.37
2023-01-27T07:10:02.310Z,15.97
2023-01-27T07:14:03.118Z,17.70
2023-01-27T07:18:07.432Z,18.00
2023-01-27T07:22:08.181Z,16.43
2023-01-27T07:26:23.321Z,23.77
2023-01-27T07:30:25.006Z,18.57
2023-01-27T07:34:27.905Z,16.67
2023-01-27T07:38:27.988Z,16.00
2023-01-27T07:42:28.175Z,16.47
2023-01-27T07:46:28.438Z,20.77
2023-01-27T07:50:31.245Z,17.33
2023-01-27T07:54:39.311Z,17.13
2023-01-27T07:58:39.397Z,17.07
2023-01-27T08:02:39.468Z,16.47
2023-01-27T08:06:43.666Z,18.20
2023-01-27T08:10:48.282Z,18.43
2023-01-27T08:15:40.770Z,16.87
2023-01-27T08:19:40.849Z,16.70
2023-01-27T08:23:43.641Z,16.90
2023-01-27T08:27:43.749Z,16.87
2023-01-27T08:31:44.385Z,15.33
2023-01-27T08:35:45.443Z,14.90
2023-01-27T08:39:48.109Z,16.33
2023-01-27T08:43:49.405Z,13.83
2023-01-27T08:47:49.555Z,16.13
2023-01-27T08:51:49.680Z,15.20
2023-01-27T08:55:54.675Z,14.77
2023-01-27T08:59:58.198Z,16.70
2023-01-27T09:08:35.036Z,17.90
2023-01-27T09:12:37.732Z,16.80
2023-01-27T09:16:37.975Z,20.57
2023-01-27T09:20:38.398Z,19.37
2023-01-27T09:24:40.400Z,19.90
2023-01-27T09:28:43.184Z,18.23
2023-01-27T09:32:44.228Z,16.50
2023-01-27T09:36:51.041Z,18.73
2023-01-27T09:41:26.677Z,14.10
2023-01-27T09:46:10.052Z,20.43
2023-01-27T09:50:42.527Z,19.27
2023-01-27T09:55:00.547Z,14.30
2023-01-27T09:59:28.499Z,14.63
2023-01-27T10:03:59.250Z,14.90
2023-01-27T10:08:24.807Z,17.10
2023-01-27T10:12:47.834Z,16.37
2023-01-27T10:17:21.579Z,14.53
2023-01-27T10:21:37.012Z,14.40
2023-01-27T10:25:55.490Z,13.67
2023-01-27T10:30:02.696Z,14.60
2023-01-27T10:34:21.611Z,12.43
2023-01-27T10:38:42.056Z,12.73
2023-01-27T10:42:52.178Z,14.23
2023-01-27T10:47:04.298Z,14.53
2023-01-27T10:51:11.669Z,11.87
2023-01-27T10:55:25.668Z,14.07
2023-01-27T10:59:37.211Z,10.93
2023-01-27T11:03:45.046Z,10.10
2023-01-27T11:08:05.710Z,11.47
2023-01-27T11:12:14.649Z,11.93
2023-01-27T11:16:20.415Z,11.30
2023-01-27T11:20:35.159Z,11.83
2023-01-27T11:29:35.316Z,10.03
2023-01-27T11:33:58.218Z,15.33
2023-01-27T11:38:14.922Z,14.20
2023-01-27T11:42:17.362Z,25.97
2023-01-27T11:46:27.456Z,12.00
2023-01-27T11:50:33.490Z,12.30
2023-01-27T11:54:39.451Z,11.23
2023-01-27T11:58:46.713Z,11.57
2023-01-27T12:03:00.940Z,11.23
2023-01-27T12:07:08.395Z,11.90
2023-01-27T12:11:36.805Z,10.87
2023-01-27T12:15:40.239Z,10.27
2023-01-27T12:19:52.091Z,9.60
2023-01-27T12:23:59.310Z,9.23
2023-01-27T12:28:05.591Z,8.00
2023-01-27T12:32:22.115Z,10.10
2023-01-27T12:36:29.148Z,7.90
2023-01-27T12:40:32.370Z,8.87
2023-01-27T12:45:22.195Z,11.03
2023-01-27T12:49:28.661Z,11.17
2023-01-27T12:53:31.547Z,11.20
2023-01-27T12:57:35.891Z,10.37
2023-01-27T13:01:41.493Z,9.80
2023-01-27T13:05:46.136Z,8.50
2023-01-27T13:09:58.741Z,8.60
2023-01-27T13:14:01.365Z,8.17
2023-01-27T13:18:03.594Z,9.43
2023-01-27T13:22:06.885Z,9.23
2023-01-27T13:26:19.149Z,10.10
2023-01-27T13:30:30.420Z,9.27
2023-01-27T13:34:53.304Z,8.30
2023-01-27T13:39:03.218Z,9.30
2023-01-27T13:43:15.175Z,11.67
2023-01-27T13:47:22.187Z,9.50
2023-01-27T13:51:26.536Z,8.10
2023-01-27T13:55:50.934Z,8.77
2023-01-27T14:00:10.793Z,9.37
2023-01-27T14:09:20.314Z,8.13
2023-01-27T14:13:55.064Z,9.00
2023-01-27T14:18:06.509Z,8.23
2023-01-27T14:22:19.461Z,9.23
2023-01-27T14:26:43.058Z,8.83
2023-01-27T14:30:47.131Z,8.40
2023-01-27T14:35:10.028Z,10.33
2023-01-27T14:39:23.801Z,9.67
2023-01-27T14:43:39.537Z,11.70
2023-01-27T14:47:54.458Z,11.27
2023-01-27T14:52:05.395Z,9.10
2023-01-27T14:56:15.503Z,10.23
2023-01-27T15:00:33.344Z,11.30
2023-01-27T15:04:54.018Z,9.83
2023-01-27T15:09:09.798Z,11.87
2023-01-27T15:13:40.058Z,12.43
2023-01-27T15:18:03.968Z,11.93
2023-01-27T15:22:42.074Z,11.93
2023-01-27T15:26:46.121Z,11.90
2023-01-27T15:31:23.029Z,12.67
2023-01-27T15:35:41.790Z,14.77
2023-01-27T15:40:05.603Z,15.00
2023-01-27T15:44:19.101Z,14.90
2023-01-27T15:48:27.381Z,16.90
2023-01-27T15:52:34.616Z,18.63
2023-01-27T15:56:50.455Z,19.80
2023-01-27T16:00:59.255Z,20.00
2023-01-27T16:05:18.284Z,20.60
2023-01-27T16:09:36.038Z,20.80
2023-01-27T16:13:38.780Z,21.03
2023-01-27T16:18:02.644Z,22.97
2023-01-27T16:22:07.557Z,20.70
2023-01-27T16:26:25.467Z,22.43
2023-01-27T16:30:30.589Z,20.33
2023-01-27T16:34:40.974Z,22.13
2023-01-27T16:38:45.865Z,29.33
2023-01-27T16:43:04.908Z,22.27
2023-01-27T16:47:16.878Z,22.20
2023-01-27T16:51:26.039Z,21.27
2023-01-27T16:55:26.965Z,21.33
2023-01-27T16:59:31.128Z,18.33
2023-01-27T17:03:39.857Z,18.37
2023-01-27T17:07:42.465Z,18.93
2023-01-27T17:11:46.052Z,21.30
2023-01-27T17:15:47.239Z,19.83
2023-01-27T17:19:51.562Z,18.70
2023-01-27T17:23:54.716Z,19.67
2023-01-27T17:27:55.316Z,18.40
2023-01-27T17:31:55.635Z,17.90
2023-01-27T17:36:00.062Z,19.73
2023-01-27T17:40:05.497Z,17.97
2023-01-27T17:44:14.014Z,19.20
2023-01-27T17:48:16.049Z,17.40
2023-01-27T17:52:23.865Z,14.70
2023-01-27T17:56:32.355Z,13.50
2023-01-27T18:00:38.365Z,14.77
2023-01-27T18:04:45.037Z,13.47
2023-01-27T18:08:54.919Z,15.87
2023-01-27T18:12:59.080Z,16.00
2023-01-27T18:17:05.545Z,14.90
2023-01-27T18:21:15.756Z,13.90
2023-01-27T18:25:21.776Z,14.40
2023-01-27T18:29:30.341Z,12.97
2023-01-27T18:33:30.620Z,12.07
2023-01-27T18:37:34.417Z,12.37
2023-01-27T18:41:38.174Z,14.30
2023-01-27T18:45:41.040Z,11.00
2023-01-27T18:49:41.145Z,10.30
2023-01-27T18:53:41.199Z,10.23
2023-01-27T18:57:41.581Z,8.73
2023-01-27T19:01:44.435Z,10.70
2023-01-27T19:05:44.632Z,11.17
2023-01-27T19:09:45.753Z,8.93
2023-01-27T19:13:46.460Z,11.37
2023-01-27T19:17:50.619Z,10.20
2023-01-27T19:21:50.787Z,10.33
2023-01-27T19:25:55.468Z,11.47
2023-01-27T19:29:55.779Z,12.60
2023-01-27T19:33:58.569Z,10.87
2023-01-27T19:38:00.401Z,10.63
2023-01-27T19:42:00.511Z,10.47
2023-01-27T19:46:00.952Z,9.20
2023-01-27T19:50:05.179Z,10.37
2023-01-27T19:54:05.325Z,9.57
2023-01-27T19:58:06.018Z,13.53
2023-01-27T20:02:06.253Z,20.03
2023-01-27T20:06:18.550Z,14.07
2023-01-27T20:10:22.926Z,12.53
2023-01-27T20:14:25.872Z,12.60
2023-01-27T20:18:26.867Z,12.87
2023-01-27T20:22:29.911Z,15.33
2023-01-27T20:26:31.441Z,13.27
2023-01-27T20:30:36.456Z,15.37
2023-01-27T20:34:38.737Z,15.43
2023-01-27T20:38:42.293Z,16.30
2023-01-27T20:42:42.511Z,10.87
2023-01-27T20:46:43.000Z,11.30
2023-01-27T20:50:43.015Z,13.43
2023-01-27T20:54:45.809Z,14.33
2023-01-27T20:58:46.480Z,15.30
2023-01-27T21:02:46.790Z,12.97
2023-01-27T21:06:46.937Z,12.93
2023-01-27T21:10:49.683Z,15.40
2023-01-27T21:14:49.919Z,13.20
2023-01-27T21:18:50.046Z,12.07
2023-01-27T21:22:50.380Z,12.07
2023-01-27T21:26:54.490Z,13.23
2023-01-27T21:30:54.575Z,12.47
2023-01-27T21:34:56.595Z,10.77
2023-01-27T21:38:58.029Z,11.20
2023-01-27T21:43:13.067Z,12.93
2023-01-27T21:47:15.951Z,14.33
2023-01-27T21:51:16.437Z,10.40
2023-01-27T21:55:20.638Z,12.83
